Terminal Aerodrome Forecast
Issued by NWS New Orleans/Baton Rouge, LA

Home | Current Version | Previous Version | Text Only | Print | Product List | Glossary On
Versions: 1 2 3 4 5 6 7 8 9 10 11 12 13 14 15
000
FTUS44 KLIX 252325
TAFNEW
TAF
KNEW 252325Z 2600/2624 19011KT P6SM FEW250
     FM261400 17012KT P6SM BKN060
     FM261700 17015KT P6SM SCT080
     FM262200 18016G24KT P6SM BKN035=

USA.gov is the U.S. government's official web portal to all federal, state and local government web resources and services.